Time;durP1;ratioP1;P1;durP2;ratioP2;P2;SDS_P1;SDS_P2;PMS_P1;PMS_P2;Temp;Humidity;BMP_temperature;BMP_pressure;BME280_temperature;BME280_humidity;BME280_pressure;Samples;Min_cycle;Max_cycle;Signal;HPM_P1;HPM_P2
2021/12/02 00:01:04;;;;;;;7.35;2.45;;;;;;;6.64;72.96;98013.06;5059704;28;20468;-64
2021/12/02 00:03:29;;;;;;;10.68;3.38;;;;;;;5.93;74.99;98022.06;5057543;28;20055;-64
2021/12/02 00:05:54;;;;;;;11.85;3.33;;;;;;;5.49;76.96;98018.94;5060028;28;20067;-64
2021/12/02 00:08:20;;;;;;;11.07;2.53;;;;;;;5.41;76.40;98024.13;5059184;28;20041;-64
2021/12/02 00:10:45;;;;;;;8.55;2.95;;;;;;;5.00;79.09;98023.09;5057492;28;20074;-64
2021/12/02 00:13:11;;;;;;;23.90;4.05;;;;;;;5.34;78.21;98027.09;5058881;28;20153;-63
2021/12/02 00:18:31;;;;;;;11.98;2.53;;;;;;;5.32;77.11;98031.97;5060038;28;20029;-64
2021/12/02 00:21:04;;;;;;;11.63;3.83;;;;;;;5.96;74.66;98032.31;5058491;28;20536;-65
2021/12/02 00:23:37;;;;;;;17.25;4.53;;;;;;;5.45;77.50;98034.09;5059458;28;20056;-64
2021/12/02 00:26:13;;;;;;;14.32;3.30;;;;;;;5.18;77.37;98034.41;5059711;28;20379;-63
2021/12/02 00:28:39;;;;;;;6.40;2.65;;;;;;;5.27;77.45;98032.78;5057078;28;20050;-64
2021/12/02 00:31:20;;;;;;;6.72;2.35;;;;;;;5.53;76.76;98034.63;5059802;28;20098;-64
2021/12/02 00:33:48;;;;;;;10.75;2.67;;;;;;;5.52;76.61;98030.28;5057886;28;20039;-65
2021/12/02 00:36:16;;;;;;;12.48;2.50;;;;;;;5.67;76.14;98035.69;5059002;28;20514;-64
2021/12/02 00:38:46;;;;;;;10.15;2.90;;;;;;;6.20;74.48;98041.75;5059357;28;20110;-64
2021/12/02 00:41:17;;;;;;;11.30;3.47;;;;;;;5.77;74.74;98040.25;5057223;28;20494;-63
2021/12/02 00:43:44;;;;;;;10.00;2.78;;;;;;;6.25;74.39;98039.00;5058550;28;20119;-64
2021/12/02 00:46:12;;;;;;;6.95;1.85;;;;;;;5.75;75.30;98042.41;5056929;28;20624;-64
2021/12/02 00:48:38;;;;;;;9.38;2.35;;;;;;;5.09;77.24;98042.25;5041371;28;20036;-63
2021/12/02 00:51:05;;;;;;;8.73;2.00;;;;;;;6.20;73.97;98041.75;5057000;28;20062;-66
2021/12/02 00:53:32;;;;;;;14.50;2.60;;;;;;;6.48;72.84;98035.91;5059010;28;20024;-64
2021/12/02 00:56:02;;;;;;;24.48;2.90;;;;;;;6.58;72.17;98032.31;5058691;28;20031;-64
2021/12/02 00:58:30;;;;;;;14.77;2.88;;;;;;;5.24;75.21;98039.56;5057453;28;20043;-65
2021/12/02 01:00:56;;;;;;;13.40;3.75;;;;;;;6.30;73.61;98041.66;5058735;28;20502;-65
2021/12/02 01:03:22;;;;;;;11.70;2.15;;;;;;;6.04;73.44;98044.47;5057223;28;20054;-65
2021/12/02 01:05:48;;;;;;;8.80;2.13;;;;;;;6.08;73.38;98050.19;5058622;28;20551;-64
2021/12/02 01:08:13;;;;;;;7.85;2.33;;;;;;;6.06;74.31;98042.31;5056500;28;20031;-64
2021/12/02 01:10:40;;;;;;;10.88;3.28;;;;;;;5.69;74.84;98043.53;5058450;28;20526;-64
2021/12/02 01:13:06;;;;;;;11.68;2.17;;;;;;;5.90;75.41;98032.66;5057797;28;20123;-64
2021/12/02 01:15:31;;;;;;;19.00;2.10;;;;;;;5.85;74.25;98044.28;5057342;28;20085;-64
2021/12/02 01:17:57;;;;;;;14.35;4.15;;;;;;;6.10;73.71;98050.72;5058256;28;20042;-64
2021/12/02 01:20:22;;;;;;;11.43;2.60;;;;;;;6.34;72.93;98041.94;5057045;28;20032;-64
2021/12/02 01:22:49;;;;;;;9.45;3.97;;;;;;;6.19;73.04;98048.22;5057984;28;20866;-64
2021/12/02 01:25:17;;;;;;;12.00;3.33;;;;;;;6.54;72.36;98053.75;5057089;28;20116;-65
2021/12/02 01:27:47;;;;;;;11.18;2.85;;;;;;;6.84;71.42;98053.81;5056941;28;20267;-65
2021/12/02 01:30:12;;;;;;;23.17;4.10;;;;;;;6.51;71.85;98057.81;5057790;28;20150;-64
2021/12/02 01:32:39;;;;;;;12.07;2.72;;;;;;;6.07;73.11;98051.25;5056847;28;20146;-66
2021/12/02 01:35:05;;;;;;;9.73;3.08;;;;;;;5.89;74.83;98060.75;5057936;28;20032;-66
2021/12/02 01:37:31;;;;;;;12.32;3.45;;;;;;;5.51;76.86;98056.53;5056531;28;20870;-65
2021/12/02 01:39:57;;;;;;;14.13;3.03;;;;;;;5.79;75.43;98048.09;5057841;28;20119;-65
2021/12/02 01:42:26;;;;;;;11.07;2.67;;;;;;;6.61;73.48;98050.72;5055479;28;20059;-65
2021/12/02 01:44:54;;;;;;;10.50;3.33;;;;;;;5.99;73.91;98057.22;5058036;28;20259;-64
2021/12/02 01:47:23;;;;;;;12.35;4.00;;;;;;;6.82;71.96;98056.81;5056696;28;20082;-66
2021/12/02 01:49:53;;;;;;;8.98;2.65;;;;;;;5.84;74.64;98061.59;5056484;28;20528;-65
2021/12/02 01:52:25;;;;;;;12.18;3.30;;;;;;;6.04;74.79;98054.50;5057798;28;20105;-65
2021/12/02 01:54:51;;;;;;;9.48;2.60;;;;;;;6.66;72.48;98058.81;5056642;28;20028;-65
2021/12/02 01:57:29;;;;;;;9.45;3.97;;;;;;;6.35;72.90;98054.38;5056705;28;20109;-65
2021/12/02 02:00:14;;;;;;;23.35;4.45;;;;;;;5.91;74.81;98048.59;5055913;28;20364;-65
2021/12/02 02:02:41;;;;;;;14.82;3.65;;;;;;;6.31;73.92;98053.31;5037733;28;20344;-64
2021/12/02 02:05:12;;;;;;;7.95;2.45;;;;;;;6.30;73.61;98051.72;5039214;28;20396;-65
2021/12/02 02:07:44;;;;;;;12.43;4.28;;;;;;;6.13;74.93;98060.16;5056352;28;20070;-65
2021/12/02 02:10:10;;;;;;;10.63;4.53;;;;;;;5.48;76.20;98060.59;5056740;28;20115;-65
2021/12/02 02:12:35;;;;;;;9.52;3.72;;;;;;;5.47;77.80;98047.34;5054921;28;20052;-66
2021/12/02 02:15:02;;;;;;;8.63;3.63;;;;;;;5.88;76.53;98056.44;5039770;28;20370;-63
2021/12/02 02:17:35;;;;;;;6.82;2.80;;;;;;;6.47;74.24;98051.31;5056288;28;20044;-65
2021/12/02 02:20:02;;;;;;;8.60;3.47;;;;;;;6.14;75.25;98053.69;5056369;28;20478;-65
2021/12/02 02:22:27;;;;;;;11.20;3.97;;;;;;;5.40;76.91;98047.63;5057380;28;20442;-65
2021/12/02 02:24:53;;;;;;;11.52;4.03;;;;;;;6.14;74.86;98048.25;5054838;28;20032;-63
2021/12/02 02:27:20;;;;;;;12.23;3.83;;;;;;;5.59;76.09;98045.16;5056021;28;20032;-64
2021/12/02 02:29:45;;;;;;;9.27;3.33;;;;;;;6.40;74.60;98045.44;5054970;28;20400;-65
2021/12/02 02:32:11;;;;;;;10.05;3.13;;;;;;;6.08;75.97;98044.78;5057066;28;20961;-64
2021/12/02 02:34:36;;;;;;;8.35;3.10;;;;;;;5.95;75.68;98051.53;5055893;28;20145;-66
2021/12/02 02:40:08;;;;;;;11.40;4.82;;;;;;;5.87;75.41;98036.69;5046675;28;20059;-65
2021/12/02 02:42:34;;;;;;;17.40;3.70;;;;;;;5.53;76.09;98038.16;5054206;28;20032;-64
2021/12/02 02:45:00;;;;;;;11.10;3.58;;;;;;;4.92;79.15;98047.94;5057268;28;20423;-64
2021/12/02 02:47:27;;;;;;;10.43;3.25;;;;;;;5.51;77.09;98047.63;5037051;28;21026;-65
2021/12/02 02:49:52;;;;;;;11.60;4.90;;;;;;;4.47;81.97;98038.44;5055981;28;20679;-63
2021/12/02 02:52:18;;;;;;;10.10;3.45;;;;;;;5.49;78.39;98048.69;5056497;28;20056;-65
2021/12/02 02:54:43;;;;;;;14.70;4.75;;;;;;;5.42;77.80;98039.25;5055405;28;20111;-64
2021/12/02 02:57:12;;;;;;;7.97;2.83;;;;;;;5.19;78.17;98042.25;5056162;28;20032;-65
2021/12/02 02:59:58;;;;;;;10.27;3.65;;;;;;;5.76;76.89;98043.22;5054885;28;20033;-65
2021/12/02 03:04:59;;;;;;;12.23;4.18;;;;;;;5.22;79.42;98046.28;5055842;28;20064;-64
2021/12/02 03:07:34;;;;;;;11.73;4.47;;;;;;;4.79;79.35;98045.50;5056185;28;20051;-65
2021/12/02 03:10:17;;;;;;;7.95;3.00;;;;;;;5.37;79.47;98048.97;5055564;28;20051;-65
2021/12/02 03:17:42;;;;;;;10.30;3.53;;;;;;;4.97;79.07;98062.25;5056176;28;20037;-65
2021/12/02 03:20:08;;;;;;;11.10;4.32;;;;;;;4.72;81.28;98050.31;5056222;28;20593;-65
2021/12/02 03:22:34;;;;;;;11.93;3.20;;;;;;;4.90;79.83;98050.91;5055942;28;20139;-65
2021/12/02 03:25:01;;;;;;;10.10;3.63;;;;;;;4.95;79.94;98053.59;5055435;28;20052;-65
2021/12/02 03:27:27;;;;;;;14.18;4.55;;;;;;;5.41;77.96;98051.94;5039407;28;20032;-65
2021/12/02 03:29:52;;;;;;;11.65;4.00;;;;;;;4.47;80.79;98054.63;5054781;28;20027;-64
2021/12/02 03:32:18;;;;;;;19.58;3.88;;;;;;;4.78;80.80;98060.06;5056293;28;20028;-64
2021/12/02 03:34:44;;;;;;;9.02;3.70;;;;;;;5.12;78.91;98057.94;5054846;28;20144;-62
2021/12/02 03:37:10;;;;;;;16.25;4.95;;;;;;;4.76;79.31;98056.81;5056968;28;20171;-64
2021/12/02 03:39:36;;;;;;;18.65;5.45;;;;;;;4.75;79.86;98060.59;5056132;28;20499;-65
2021/12/02 03:42:03;;;;;;;12.00;5.13;;;;;;;4.93;77.89;98057.63;5055431;28;20088;-63
2021/12/02 03:44:28;;;;;;;15.48;6.70;;;;;;;4.72;77.84;98061.13;5056420;28;20075;-65
2021/12/02 03:46:54;;;;;;;13.10;6.80;;;;;;;4.86;78.27;98060.63;5054934;28;20112;-65
2021/12/02 03:49:20;;;;;;;13.65;5.70;;;;;;;5.14;76.02;98058.47;5057431;28;20025;-65
2021/12/02 03:51:46;;;;;;;16.02;8.23;;;;;;;5.40;76.10;98054.91;5053666;28;20027;-64
2021/12/02 03:54:11;;;;;;;13.68;6.32;;;;;;;5.79;75.00;98054.31;5056519;28;20025;-64
2021/12/02 03:56:37;;;;;;;11.60;5.35;;;;;;;6.27;72.98;98058.47;5054988;28;20031;-66
2021/12/02 03:59:03;;;;;;;13.27;5.95;;;;;;;5.68;74.63;98064.34;5054871;28;20028;-64
2021/12/02 04:01:42;;;;;;;10.85;5.15;;;;;;;5.08;76.04;98062.25;5055630;28;20597;-65
2021/12/02 04:04:08;;;;;;;10.40;5.65;;;;;;;5.36;74.86;98058.19;5054917;28;20047;-64
2021/12/02 04:06:33;;;;;;;16.42;5.50;;;;;;;5.85;74.28;98060.50;5056442;28;20475;-63
2021/12/02 04:09:08;;;;;;;11.40;5.18;;;;;;;5.68;74.02;98052.69;5054724;28;20047;-62
2021/12/02 04:11:43;;;;;;;8.30;3.47;;;;;;;5.82;73.07;98061.03;5056113;28;20039;-64
2021/12/02 04:17:05;;;;;;;10.75;4.70;;;;;;;5.71;74.24;98058.41;5041262;28;20423;-65
2021/12/02 04:19:30;;;;;;;8.35;3.40;;;;;;;6.07;72.80;98051.25;5056328;28;20029;-64
2021/12/02 04:21:58;;;;;;;10.75;3.95;;;;;;;6.06;72.86;98053.16;5054675;28;20029;-65
2021/12/02 04:24:24;;;;;;;13.13;4.10;;;;;;;6.16;72.96;98065.03;5055907;28;20056;-64
2021/12/02 04:26:50;;;;;;;13.32;3.63;;;;;;;5.53;75.47;98058.97;5056837;28;20040;-66
2021/12/02 04:29:16;;;;;;;9.80;4.10;;;;;;;5.09;78.16;98069.25;5058703;28;20029;-63
2021/12/02 04:31:43;;;;;;;12.40;5.25;;;;;;;5.84;75.13;98061.59;5059960;28;20039;-64
2021/12/02 04:34:08;;;;;;;8.13;4.18;;;;;;;5.54;76.25;98065.97;5058875;28;20404;-64
2021/12/02 04:36:34;;;;;;;12.73;7.20;;;;;;;4.87;77.34;98056.81;5059057;28;20094;-64
2021/12/02 04:38:59;;;;;;;14.45;6.65;;;;;;;5.63;75.44;98058.13;5058193;28;20025;-65
2021/12/02 04:41:25;;;;;;;11.85;6.13;;;;;;;5.97;74.74;98057.50;5059511;28;20039;-64
2021/12/02 04:43:50;;;;;;;17.40;7.60;;;;;;;4.79;78.41;98066.28;5058329;28;20036;-64
2021/12/02 04:46:16;;;;;;;12.77;6.18;;;;;;;4.98;77.72;98071.94;5059051;28;20095;-64
2021/12/02 04:48:41;;;;;;;12.88;7.05;;;;;;;4.51;80.40;98080.00;5059428;28;20032;-65
2021/12/02 04:51:07;;;;;;;14.93;6.78;;;;;;;4.68;78.94;98084.34;5057154;28;20488;-65
2021/12/02 04:53:32;;;;;;;13.20;6.53;;;;;;;5.32;77.03;98088.72;5059146;28;20085;-63
2021/12/02 04:55:58;;;;;;;12.85;5.47;;;;;;;5.56;76.26;98080.03;5057615;28;20170;-64
2021/12/02 04:58:23;;;;;;;17.15;6.63;;;;;;;4.64;79.26;98075.16;5058660;28;20041;-64
2021/12/02 05:00:50;;;;;;;30.60;6.25;;;;;;;5.09;78.65;98080.06;5057838;28;20115;-65
2021/12/02 05:03:15;;;;;;;12.90;5.97;;;;;;;4.84;78.61;98068.97;5058984;28;20054;-64
2021/12/02 05:05:40;;;;;;;12.45;6.25;;;;;;;5.15;78.05;98068.19;5057540;28;20504;-65
2021/12/02 05:08:06;;;;;;;16.17;7.77;;;;;;;4.90;78.02;98069.81;5058397;28;20364;-65
2021/12/02 05:10:31;;;;;;;17.83;7.65;;;;;;;4.34;79.26;98065.91;5058631;28;20270;-65
2021/12/02 05:12:57;;;;;;;15.18;7.72;;;;;;;4.40;80.08;98067.53;5038792;28;20419;-64
2021/12/02 05:15:22;;;;;;;16.00;8.75;;;;;;;4.39;80.40;98080.25;5059529;28;20032;-65
2021/12/02 05:17:47;;;;;;;15.07;7.25;;;;;;;4.81;77.64;98074.09;5058025;28;20021;-63
2021/12/02 05:20:13;;;;;;;14.77;7.95;;;;;;;4.41;78.96;98082.66;5058049;28;20085;-66
2021/12/02 05:22:38;;;;;;;18.17;9.35;;;;;;;3.94;80.76;98074.38;5057241;28;20521;-65
2021/12/02 05:25:04;;;;;;;12.52;6.15;;;;;;;4.67;78.73;98074.63;5057597;28;20086;-64
2021/12/02 05:27:29;;;;;;;16.10;7.20;;;;;;;4.77;78.17;98080.06;5058350;28;20035;-64
2021/12/02 05:29:55;;;;;;;17.30;7.25;;;;;;;4.07;79.82;98079.28;5056981;28;20024;-63
2021/12/02 05:32:20;;;;;;;16.90;5.80;;;;;;;4.68;79.34;98078.94;5058851;28;20051;-64
2021/12/02 05:34:48;;;;;;;14.20;7.03;;;;;;;4.35;79.25;98078.31;5056982;28;20404;-64
2021/12/02 05:37:14;;;;;;;15.80;6.80;;;;;;;4.27;79.37;98079.66;5058225;28;20314;-63
2021/12/02 05:39:40;;;;;;;13.52;6.55;;;;;;;3.93;80.30;98080.84;5057576;28;20029;-64
2021/12/02 05:42:05;;;;;;;8.20;5.03;;;;;;;4.82;77.58;98067.63;5057942;28;20047;-64
2021/12/02 05:44:31;;;;;;;11.60;4.75;;;;;;;4.55;77.27;98073.00;5057434;28;20038;-64
2021/12/02 05:46:56;;;;;;;13.18;5.55;;;;;;;4.59;77.37;98077.84;5057492;28;20027;-63
2021/12/02 05:49:22;;;;;;;9.43;5.05;;;;;;;4.49;77.06;98068.66;5059188;28;20033;-63
2021/12/02 05:51:47;;;;;;;13.10;5.60;;;;;;;4.28;79.07;98078.56;5056888;28;20024;-63
2021/12/02 05:54:12;;;;;;;24.85;5.00;;;;;;;4.94;76.24;98081.69;5058031;28;20070;-64
2021/12/02 05:56:38;;;;;;;9.70;5.60;;;;;;;3.79;79.70;98078.63;5056792;28;20036;-64
2021/12/02 05:59:03;;;;;;;11.23;4.50;;;;;;;4.26;79.17;98086.13;5057920;28;20039;-64
2021/12/02 06:01:28;;;;;;;10.98;4.13;;;;;;;5.00;76.08;98086.00;5056913;28;20513;-65
2021/12/02 06:03:54;;;;;;;13.13;5.13;;;;;;;4.02;79.79;98083.88;5057335;28;20040;-63
2021/12/02 06:06:23;;;;;;;9.23;3.97;;;;;;;4.44;78.83;98090.22;5057174;28;20539;-64
2021/12/02 06:08:48;;;;;;;11.93;4.05;;;;;;;5.17;76.45;98089.50;5039870;28;20071;-64
2021/12/02 06:11:13;;;;;;;9.85;3.92;;;;;;;5.11;75.85;98088.72;5057619;28;20092;-63
2021/12/02 06:13:39;;;;;;;10.13;3.03;;;;;;;4.21;78.41;98084.19;5055934;28;20045;-63
2021/12/02 06:16:04;;;;;;;7.18;3.25;;;;;;;3.72;81.46;98102.31;5057482;28;20270;-63
2021/12/02 06:18:30;;;;;;;10.88;4.63;;;;;;;4.63;78.22;98087.03;5056561;28;20031;-64
2021/12/02 06:20:55;;;;;;;9.05;3.38;;;;;;;3.96;79.78;98088.44;5057696;28;20499;-64
2021/12/02 06:23:22;;;;;;;16.08;3.95;;;;;;;4.99;76.89;98103.31;5056777;28;21994;-65
2021/12/02 06:25:48;;;;;;;8.65;4.32;;;;;;;3.71;80.18;98114.16;5056135;28;20024;-63
2021/12/02 06:28:15;;;;;;;8.13;3.65;;;;;;;3.94;79.44;98120.22;5057216;28;20040;-63
2021/12/02 06:30:41;;;;;;;7.75;3.95;;;;;;;4.63;78.16;98111.34;5056167;28;20025;-63
2021/12/02 06:33:06;;;;;;;13.57;4.28;;;;;;;4.76;76.27;98115.44;5057149;28;20025;-64
2021/12/02 06:35:31;;;;;;;10.45;3.65;;;;;;;4.34;77.54;98125.25;5049740;28;20040;-64
2021/12/02 06:37:58;;;;;;;10.07;4.10;;;;;;;4.59;77.73;98121.84;5057179;28;20518;-63
2021/12/02 06:40:24;;;;;;;8.32;3.85;;;;;;;3.88;79.48;98127.50;5056014;28;20035;-64
2021/12/02 06:42:49;;;;;;;10.85;4.88;;;;;;;3.85;79.44;98136.09;5055962;28;20024;-64
2021/12/02 06:45:15;;;;;;;7.05;3.42;;;;;;;4.99;76.79;98134.91;5039005;28;20031;-64
2021/12/02 06:47:41;;;;;;;10.30;4.38;;;;;;;3.89;79.61;98142.59;5054914;28;20033;-64
2021/12/02 06:50:10;;;;;;;11.07;5.50;;;;;;;4.04;79.62;98136.47;5056505;28;20375;-64
2021/12/02 06:52:36;;;;;;;8.43;3.65;;;;;;;3.73;80.55;98147.06;5055161;28;20365;-64
2021/12/02 06:55:03;;;;;;;15.82;4.32;;;;;;;4.16;79.97;98140.84;5057079;28;20060;-64
2021/12/02 06:57:28;;;;;;;11.88;3.10;;;;;;;4.85;76.92;98138.13;5055055;28;20370;-65
2021/12/02 06:59:54;;;;;;;15.35;4.13;;;;;;;3.95;79.82;98148.81;5056677;28;20028;-64
2021/12/02 07:02:19;;;;;;;10.30;4.65;;;;;;;4.26;79.36;98146.28;5055979;28;20478;-64
2021/12/02 07:04:45;;;;;;;9.48;4.05;;;;;;;4.39;79.35;98152.28;5055223;28;20048;-64
2021/12/02 07:07:10;;;;;;;9.35;4.75;;;;;;;4.43;78.36;98148.00;5057363;28;20024;-63
2021/12/02 07:09:36;;;;;;;13.13;6.07;;;;;;;4.99;77.36;98151.91;5056051;28;20038;-65
2021/12/02 07:12:02;;;;;;;11.63;4.82;;;;;;;4.38;79.12;98143.38;5057335;28;20153;-61
2021/12/02 07:14:28;;;;;;;17.27;7.05;;;;;;;3.70;81.22;98153.00;5056173;28;20028;-63
2021/12/02 07:16:53;;;;;;;14.40;5.93;;;;;;;3.99;80.75;98162.59;5056973;28;20032;-64
2021/12/02 07:19:18;;;;;;;12.73;5.45;;;;;;;4.36;79.24;98155.50;5056989;28;20040;-65
2021/12/02 07:21:45;;;;;;;14.60;6.72;;;;;;;4.03;79.71;98161.00;5056471;28;20024;-64
2021/12/02 07:24:13;;;;;;;15.70;6.30;;;;;;;4.38;79.08;98148.78;5057091;28;20055;-66
2021/12/02 07:26:41;;;;;;;14.70;7.63;;;;;;;4.51;78.94;98163.69;5055458;28;20033;-65
2021/12/02 07:29:08;;;;;;;11.82;6.75;;;;;;;4.63;79.11;98168.03;5056973;28;20051;-66
2021/12/02 07:31:34;;;;;;;11.18;7.68;;;;;;;3.91;81.24;98172.78;5056164;28;20029;-65
2021/12/02 07:34:02;;;;;;;18.92;8.60;;;;;;;4.01;81.17;98165.84;5057313;28;20526;-65
2021/12/02 07:36:28;;;;;;;18.77;7.93;;;;;;;3.98;82.00;98175.28;5056118;28;20123;-66
2021/12/02 07:38:54;;;;;;;17.30;9.15;;;;;;;4.17;80.22;98175.63;5057212;28;20070;-66
2021/12/02 07:41:20;;;;;;;20.00;10.52;;;;;;;4.32;80.00;98172.22;5058401;28;20036;-66
2021/12/02 07:43:45;;;;;;;22.73;9.93;;;;;;;4.57;79.17;98172.59;5055565;28;20529;-65
2021/12/02 07:46:10;;;;;;;14.60;7.72;;;;;;;5.09;77.34;98182.72;5056597;28;20028;-64
2021/12/02 07:48:36;;;;;;;19.08;9.13;;;;;;;4.24;78.55;98188.91;5056039;28;20025;-64
2021/12/02 07:51:16;;;;;;;19.00;9.57;;;;;;;5.33;76.10;98187.66;5057269;28;20119;-66
2021/12/02 07:53:43;;;;;;;20.13;9.88;;;;;;;5.35;76.34;98191.69;5056644;28;20036;-65
2021/12/02 07:56:11;;;;;;;17.48;9.93;;;;;;;4.45;78.26;98205.22;5056636;28;20513;-64
2021/12/02 07:58:40;;;;;;;16.25;9.20;;;;;;;4.43;79.82;98205.44;5057308;28;20036;-66
2021/12/02 08:01:07;;;;;;;19.30;9.00;;;;;;;5.15;76.46;98197.88;5057312;28;20036;-65
2021/12/02 08:03:32;;;;;;;21.88;10.93;;;;;;;4.31;79.36;98207.56;5061209;28;20718;-65
2021/12/02 08:05:57;;;;;;;23.92;12.43;;;;;;;3.98;79.76;98218.44;5059134;28;20209;-64
2021/12/02 08:08:23;;;;;;;24.38;12.10;;;;;;;4.37;79.09;98219.19;5060824;28;20102;-66
2021/12/02 08:10:48;;;;;;;19.25;9.10;;;;;;;3.85;79.17;98217.78;5060456;28;20123;-66
2021/12/02 08:13:14;;;;;;;24.42;7.55;;;;;;;4.26;78.89;98224.53;5059807;28;20059;-66
2021/12/02 08:15:41;;;;;;;14.75;7.07;;;;;;;4.54;77.79;98225.22;5060184;28;20657;-66
2021/12/02 08:18:06;;;;;;;13.60;8.07;;;;;;;4.54;76.75;98227.91;5059906;28;20039;-65
2021/12/02 08:20:32;;;;;;;13.63;6.05;;;;;;;5.07;75.54;98222.69;5061089;28;20487;-64
2021/12/02 08:26:01;;;;;;;10.63;5.80;;;;;;;5.44;73.60;98226.28;5051646;28;20132;-65
2021/12/02 08:28:28;;;;;;;9.77;5.75;;;;;;;4.98;73.88;98233.22;5059590;28;20407;-64
2021/12/02 08:30:54;;;;;;;9.27;4.93;;;;;;;5.42;73.07;98247.38;5059220;28;20021;-64
2021/12/02 08:33:20;;;;;;;10.13;5.20;;;;;;;5.24;72.95;98239.50;5060616;28;20029;-66
2021/12/02 08:35:46;;;;;;;11.75;4.82;;;;;;;5.16;73.51;98242.75;5058722;28;20114;-66
2021/12/02 08:38:13;;;;;;;7.32;3.92;;;;;;;4.88;73.45;98252.91;5060439;28;20040;-62
2021/12/02 08:40:40;;;;;;;7.93;3.88;;;;;;;4.96;72.79;98263.22;5058848;28;20040;-63
2021/12/02 08:43:10;;;;;;;8.13;4.30;;;;;;;4.59;74.16;98269.50;5059492;28;20036;-64
2021/12/02 08:45:37;;;;;;;8.30;3.53;;;;;;;5.05;73.54;98273.47;5059835;28;20057;-63
2021/12/02 08:48:04;;;;;;;7.82;4.43;;;;;;;4.44;73.77;98271.03;5059307;28;20048;-62
2021/12/02 08:50:30;;;;;;;7.38;3.47;;;;;;;4.23;75.43;98279.00;5060354;28;20147;-65
2021/12/02 08:52:57;;;;;;;6.75;3.85;;;;;;;4.79;74.15;98271.50;5058844;28;20029;-64
2021/12/02 08:55:23;;;;;;;8.25;4.18;;;;;;;5.21;72.60;98280.56;5060097;28;20047;-63
2021/12/02 08:57:51;;;;;;;9.82;5.00;;;;;;;5.35;72.38;98278.16;5057416;28;20064;-65
2021/12/02 09:00:19;;;;;;;8.85;3.92;;;;;;;5.75;70.02;98279.59;5060422;28;20110;-63
2021/12/02 09:02:45;;;;;;;6.05;3.05;;;;;;;5.62;70.94;98284.44;5041527;28;20052;-61
2021/12/02 09:05:11;;;;;;;5.82;3.38;;;;;;;5.62;70.31;98287.16;5058897;28;20036;-63
2021/12/02 09:07:37;;;;;;;6.82;3.38;;;;;;;5.48;71.10;98298.50;5060288;28;20399;-64
2021/12/02 09:10:07;;;;;;;7.50;2.80;;;;;;;5.32;70.37;98296.81;5058664;28;20044;-64
2021/12/02 09:12:32;;;;;;;6.40;2.80;;;;;;;5.35;70.67;98302.50;5040319;28;20458;-65
2021/12/02 09:14:58;;;;;;;6.20;2.17;;;;;;;4.83;71.21;98320.38;5056024;28;20028;-65
2021/12/02 09:17:24;;;;;;;2.83;1.33;;;;;;;4.08;72.75;98317.47;5059532;28;20039;-64
2021/12/02 09:19:49;;;;;;;3.88;2.25;;;;;;;4.77;71.30;98319.56;5058806;28;20086;-63
2021/12/02 09:22:15;;;;;;;3.17;1.90;;;;;;;4.78;71.01;98318.47;5059198;28;20036;-63
2021/12/02 09:24:40;;;;;;;5.07;2.05;;;;;;;5.09;71.18;98315.09;5059560;28;20040;-63
2021/12/02 09:27:06;;;;;;;5.00;2.50;;;;;;;4.73;71.59;98311.19;5057870;28;20029;-63
2021/12/02 09:29:31;;;;;;;6.70;3.08;;;;;;;5.10;71.49;98308.63;5059332;28;20042;-63
2021/12/02 09:31:57;;;;;;;4.05;2.33;;;;;;;5.77;69.00;98318.00;5057878;28;20075;-60
2021/12/02 09:34:22;;;;;;;5.38;2.67;;;;;;;5.35;70.33;98315.22;5059918;28;20498;-60
2021/12/02 09:36:49;;;;;;;6.68;3.13;;;;;;;5.16;70.04;98326.50;5058288;28;20021;-60
2021/12/02 09:39:15;;;;;;;7.13;3.00;;;;;;;4.01;73.64;98323.06;5059228;28;20536;-59
2021/12/02 09:41:43;;;;;;;5.03;2.53;;;;;;;4.25;72.27;98321.94;5058552;28;20051;-64
2021/12/02 09:44:09;;;;;;;6.05;1.90;;;;;;;4.59;72.39;98337.81;5057868;28;20020;-61
2021/12/02 09:46:35;;;;;;;5.50;2.20;;;;;;;4.93;71.35;98336.66;5059433;28;20036;-61
2021/12/02 09:49:03;;;;;;;5.88;2.53;;;;;;;5.34;69.63;98327.09;5056729;28;20398;-62
2021/12/02 09:51:42;;;;;;;10.95;2.35;;;;;;;4.99;70.79;98334.78;5058495;28;20036;-61
2021/12/02 09:54:13;;;;;;;5.80;2.72;;;;;;;4.90;70.72;98337.19;5056483;28;20039;-61
2021/12/02 09:56:41;;;;;;;4.65;2.67;;;;;;;4.58;71.98;98346.19;5057642;28;20112;-62
2021/12/02 09:59:10;;;;;;;7.03;3.10;;;;;;;5.29;69.30;98343.31;5057762;28;20924;-62
2021/12/02 10:01:48;;;;;;;5.57;2.53;;;;;;;5.20;69.47;98349.22;5056482;28;20511;-62
2021/12/02 10:04:14;;;;;;;4.82;2.15;;;;;;;5.44;69.32;98339.81;5057891;28;21132;-61
2021/12/02 10:06:42;;;;;;;4.72;2.15;;;;;;;4.75;70.32;98346.00;5056228;28;20047;-61
2021/12/02 10:09:25;;;;;;;8.93;2.33;;;;;;;4.28;71.22;98349.22;5057833;28;20028;-62
2021/12/02 10:11:54;;;;;;;8.98;2.25;;;;;;;4.31;69.75;98354.06;5057185;28;20032;-61
2021/12/02 10:14:25;;;;;;;6.05;2.15;;;;;;;4.50;71.21;98356.38;5056980;28;20048;-61
2021/12/02 10:17:04;;;;;;;7.95;2.10;;;;;;;3.88;71.95;98345.09;5057921;28;20041;-61
2021/12/02 10:19:30;;;;;;;5.70;2.58;;;;;;;3.88;72.89;98350.47;5056239;28;20024;-63
2021/12/02 10:22:02;;;;;;;7.15;2.63;;;;;;;4.61;71.71;98353.75;5058525;28;20033;-63
2021/12/02 10:24:28;;;;;;;6.72;3.15;;;;;;;4.50;72.18;98360.97;5054317;28;20490;-64
2021/12/02 10:27:04;;;;;;;10.85;5.25;;;;;;;4.31;73.09;98364.88;5057174;28;20153;-65
2021/12/02 10:29:33;;;;;;;12.70;7.18;;;;;;;3.80;75.25;98368.75;5057059;28;20067;-64
2021/12/02 10:32:13;;;;;;;13.52;6.43;;;;;;;4.40;73.36;98361.69;5055209;28;20320;-65
2021/12/02 10:34:56;;;;;;;10.23;5.55;;;;;;;4.46;72.25;98368.75;5039039;28;20033;-64
2021/12/02 10:37:25;;;;;;;13.32;6.53;;;;;;;3.66;74.06;98359.44;5056332;28;20024;-63
2021/12/02 10:40:04;;;;;;;10.95;3.92;;;;;;;3.78;74.87;98368.19;5057566;28;20146;-64
2021/12/02 10:42:32;;;;;;;12.63;5.13;;;;;;;3.76;74.11;98364.13;5057882;28;20025;-64
2021/12/02 10:45:04;;;;;;;9.80;5.13;;;;;;;3.11;76.42;98366.34;5056454;28;20174;-63
2021/12/02 10:47:30;;;;;;;14.82;5.32;;;;;;;4.03;74.43;98366.78;5058064;28;20111;-64
2021/12/02 10:49:58;;;;;;;9.75;5.05;;;;;;;4.25;73.80;98360.50;5056631;28;20025;-64
2021/12/02 10:52:30;;;;;;;11.68;5.93;;;;;;;3.71;75.23;98362.16;5057657;28;20599;-64
2021/12/02 10:55:04;;;;;;;10.30;4.85;;;;;;;4.63;72.53;98371.31;5057135;28;20036;-64
2021/12/02 10:57:33;;;;;;;10.75;4.40;;;;;;;4.98;72.15;98363.69;5038156;28;20925;-63
2021/12/02 11:00:11;;;;;;;8.30;4.75;;;;;;;4.39;73.71;98370.88;5035902;28;20041;-64
2021/12/02 11:02:46;;;;;;;12.00;5.32;;;;;;;4.25;74.45;98375.91;5056876;28;20032;-64
2021/12/02 11:05:22;;;;;;;7.85;4.68;;;;;;;4.19;74.81;98362.34;5057796;28;20032;-64
2021/12/02 11:07:52;;;;;;;9.98;5.00;;;;;;;4.68;72.11;98365.13;5057659;28;20028;-64
2021/12/02 11:10:17;;;;;;;9.82;5.43;;;;;;;5.05;71.39;98371.56;5056465;28;20029;-64
2021/12/02 11:12:48;;;;;;;12.70;5.63;;;;;;;5.49;69.41;98364.97;5057255;28;20036;-64
2021/12/02 11:15:14;;;;;;;8.50;4.93;;;;;;;4.47;72.90;98362.31;5056073;28;20039;-63
2021/12/02 11:17:51;;;;;;;8.05;4.10;;;;;;;5.03;71.16;98371.00;5057744;28;20638;-63
2021/12/02 11:20:25;;;;;;;6.18;3.13;;;;;;;5.65;69.70;98362.34;5056669;28;20044;-63
2021/12/02 11:22:55;;;;;;;;;;;;;;;5.61;69.38;98372.84;5057337;28;20915;-64
2021/12/02 11:25:21;;;;;;;9.23;4.80;;;;;;;5.58;70.02;98369.88;5057178;28;19920;-63
2021/12/02 11:27:49;;;;;;;11.07;5.40;;;;;;;4.69;71.98;98376.75;5056402;28;20607;-64
2021/12/02 11:30:18;;;;;;;6.50;2.90;;;;;;;5.16;69.96;98369.72;5057467;28;20024;-63
2021/12/02 11:32:45;;;;;;;8.23;2.55;;;;;;;5.08;69.56;98373.75;5055263;28;20151;-64
2021/12/02 11:35:23;;;;;;;7.57;3.40;;;;;;;4.35;71.54;98373.28;5056857;28;20524;-63
2021/12/02 11:38:02;;;;;;;5.22;2.55;;;;;;;4.96;69.27;98373.13;5055766;28;20036;-63
2021/12/02 11:40:35;;;;;;;6.13;2.85;;;;;;;3.73;72.99;98366.25;5056390;28;20185;-63
2021/12/02 11:43:00;;;;;;;5.88;2.53;;;;;;;4.74;71.91;98372.19;5057261;28;20028;-63
2021/12/02 11:45:29;;;;;;;8.20;3.85;;;;;;;4.36;72.19;98369.50;5055385;28;20032;-64
2021/12/02 11:47:55;;;;;;;8.52;4.05;;;;;;;5.19;70.17;98371.91;5057244;28;20502;-63
2021/12/02 11:50:23;;;;;;;11.90;4.30;;;;;;;4.14;72.23;98375.81;5055568;28;20033;-63
2021/12/02 11:52:49;;;;;;;17.23;5.28;;;;;;;4.68;70.95;98370.53;5056694;28;20038;-63
2021/12/02 11:55:21;;;;;;;9.15;3.80;;;;;;;5.39;69.45;98372.25;5057050;28;20293;-63
2021/12/02 11:57:48;;;;;;;9.45;4.80;;;;;;;5.44;69.53;98377.66;5055607;28;20029;-63